sensor_id;sensor_type;location;lat;lon;timestamp;temperature;humidity
11136;DHT22;5622;50.840;4.948;2022-07-25T00:01:28;21.90;97.80
11136;DHT22;5622;50.840;4.948;2022-07-25T00:03:55;21.80;97.80
11136;DHT22;5622;50.840;4.948;2022-07-25T00:06:24;21.80;97.90
11136;DHT22;5622;50.840;4.948;2022-07-25T00:08:51;21.70;97.80
11136;DHT22;5622;50.840;4.948;2022-07-25T00:11:18;21.70;98.00
11136;DHT22;5622;50.840;4.948;2022-07-25T00:13:45;21.60;98.00
11136;DHT22;5622;50.840;4.948;2022-07-25T00:16:12;21.60;98.10
11136;DHT22;5622;50.840;4.948;2022-07-25T00:18:39;21.50;98.20
11136;DHT22;5622;50.840;4.948;2022-07-25T00:21:07;21.50;98.40
11136;DHT22;5622;50.840;4.948;2022-07-25T00:23:35;21.50;98.50
11136;DHT22;5622;50.840;4.948;2022-07-25T00:26:02;21.50;98.80
11136;DHT22;5622;50.840;4.948;2022-07-25T00:28:29;21.50;98.90
11136;DHT22;5622;50.840;4.948;2022-07-25T00:30:56;21.50;98.80
11136;DHT22;5622;50.840;4.948;2022-07-25T00:33:24;21.50;98.80
11136;DHT22;5622;50.840;4.948;2022-07-25T00:35:51;21.40;98.80
11136;DHT22;5622;50.840;4.948;2022-07-25T00:38:18;21.50;99.00
11136;DHT22;5622;50.840;4.948;2022-07-25T00:40:46;21.40;99.00
11136;DHT22;5622;50.840;4.948;2022-07-25T00:43:13;21.40;98.90
11136;DHT22;5622;50.840;4.948;2022-07-25T00:45:42;21.40;99.00
11136;DHT22;5622;50.840;4.948;2022-07-25T00:48:09;21.40;99.20
11136;DHT22;5622;50.840;4.948;2022-07-25T00:50:36;21.30;99.20
11136;DHT22;5622;50.840;4.948;2022-07-25T00:53:03;21.30;99.30
11136;DHT22;5622;50.840;4.948;2022-07-25T00:55:31;21.30;99.40
11136;DHT22;5622;50.840;4.948;2022-07-25T00:57:59;21.30;99.50
11136;DHT22;5622;50.840;4.948;2022-07-25T01:00:27;21.20;99.40
11136;DHT22;5622;50.840;4.948;2022-07-25T01:02:54;21.20;99.50
11136;DHT22;5622;50.840;4.948;2022-07-25T01:05:21;21.20;99.60
11136;DHT22;5622;50.840;4.948;2022-07-25T01:07:48;21.20;99.90
11136;DHT22;5622;50.840;4.948;2022-07-25T01:10:16;21.10;99.90
11136;DHT22;5622;50.840;4.948;2022-07-25T01:12:46;21.10;99.90
11136;DHT22;5622;50.840;4.948;2022-07-25T01:15:15;21.10;99.90
11136;DHT22;5622;50.840;4.948;2022-07-25T01:17:42;21.10;99.90
11136;DHT22;5622;50.840;4.948;2022-07-25T01:20:14;21.00;99.90
11136;DHT22;5622;50.840;4.948;2022-07-25T01:22:42;21.00;99.90
11136;DHT22;5622;50.840;4.948;2022-07-25T01:25:09;21.00;99.90
11136;DHT22;5622;50.840;4.948;2022-07-25T01:27:36;20.90;99.90
11136;DHT22;5622;50.840;4.948;2022-07-25T01:30:06;21.00;99.90
11136;DHT22;5622;50.840;4.948;2022-07-25T01:32:34;21.00;99.90
11136;DHT22;5622;50.840;4.948;2022-07-25T01:35:01;20.90;99.90
11136;DHT22;5622;50.840;4.948;2022-07-25T01:37:30;20.90;99.90
11136;DHT22;5622;50.840;4.948;2022-07-25T01:39:57;20.90;99.90
11136;DHT22;5622;50.840;4.948;2022-07-25T01:42:25;20.90;99.90
11136;DHT22;5622;50.840;4.948;2022-07-25T01:44:52;20.90;99.90
11136;DHT22;5622;50.840;4.948;2022-07-25T01:47:19;20.80;99.90
11136;DHT22;5622;50.840;4.948;2022-07-25T01:49:47;20.80;99.90
11136;DHT22;5622;50.840;4.948;2022-07-25T01:52:14;20.80;99.90
11136;DHT22;5622;50.840;4.948;2022-07-25T01:54:43;20.80;99.90
11136;DHT22;5622;50.840;4.948;2022-07-25T01:57:10;20.80;99.90
11136;DHT22;5622;50.840;4.948;2022-07-25T01:59:37;20.80;99.90
11136;DHT22;5622;50.840;4.948;2022-07-25T02:02:05;20.70;99.90
11136;DHT22;5622;50.840;4.948;2022-07-25T02:04:33;20.70;99.90
11136;DHT22;5622;50.840;4.948;2022-07-25T02:07:00;20.70;99.90
11136;DHT22;5622;50.840;4.948;2022-07-25T02:09:27;20.70;99.90
11136;DHT22;5622;50.840;4.948;2022-07-25T02:11:56;20.70;99.90
11136;DHT22;5622;50.840;4.948;2022-07-25T02:14:23;20.70;99.90
11136;DHT22;5622;50.840;4.948;2022-07-25T02:16:50;20.70;99.90
11136;DHT22;5622;50.840;4.948;2022-07-25T02:32:09;20.60;99.90
11136;DHT22;5622;50.840;4.948;2022-07-25T02:34:36;20.60;99.90
11136;DHT22;5622;50.840;4.948;2022-07-25T02:37:03;20.50;99.90
11136;DHT22;5622;50.840;4.948;2022-07-25T02:39:30;20.50;99.90
11136;DHT22;5622;50.840;4.948;2022-07-25T02:41:57;20.50;99.90
11136;DHT22;5622;50.840;4.948;2022-07-25T02:44:24;20.50;99.90
11136;DHT22;5622;50.840;4.948;2022-07-25T02:46:51;20.40;99.90
11136;DHT22;5622;50.840;4.948;2022-07-25T02:49:19;20.40;99.90
11136;DHT22;5622;50.840;4.948;2022-07-25T02:51:46;20.40;99.90
11136;DHT22;5622;50.840;4.948;2022-07-25T02:54:13;20.40;99.90
11136;DHT22;5622;50.840;4.948;2022-07-25T02:56:41;20.40;99.90
11136;DHT22;5622;50.840;4.948;2022-07-25T02:59:08;20.30;99.90
11136;DHT22;5622;50.840;4.948;2022-07-25T03:01:35;20.30;99.90
11136;DHT22;5622;50.840;4.948;2022-07-25T03:04:02;20.30;99.90
11136;DHT22;5622;50.840;4.948;2022-07-25T03:06:30;20.30;99.90
11136;DHT22;5622;50.840;4.948;2022-07-25T03:08:57;20.30;99.90
11136;DHT22;5622;50.840;4.948;2022-07-25T03:11:25;20.30;99.90
11136;DHT22;5622;50.840;4.948;2022-07-25T03:13:52;20.20;99.90
11136;DHT22;5622;50.840;4.948;2022-07-25T03:16:19;20.30;99.90
11136;DHT22;5622;50.840;4.948;2022-07-25T03:18:46;20.20;99.90
11136;DHT22;5622;50.840;4.948;2022-07-25T03:21:13;20.20;99.90
11136;DHT22;5622;50.840;4.948;2022-07-25T03:23:42;20.20;99.90
11136;DHT22;5622;50.840;4.948;2022-07-25T03:26:09;20.20;99.90
11136;DHT22;5622;50.840;4.948;2022-07-25T03:28:36;20.20;99.90
11136;DHT22;5622;50.840;4.948;2022-07-25T03:31:03;20.20;99.90
11136;DHT22;5622;50.840;4.948;2022-07-25T03:33:30;20.20;99.90
11136;DHT22;5622;50.840;4.948;2022-07-25T03:35:57;20.20;99.90
11136;DHT22;5622;50.840;4.948;2022-07-25T03:38:24;20.20;99.90
11136;DHT22;5622;50.840;4.948;2022-07-25T03:40:53;20.20;99.90
11136;DHT22;5622;50.840;4.948;2022-07-25T03:43:20;20.20;99.90
11136;DHT22;5622;50.840;4.948;2022-07-25T03:45:47;20.20;99.90
11136;DHT22;5622;50.840;4.948;2022-07-25T03:48:14;20.30;99.90
11136;DHT22;5622;50.840;4.948;2022-07-25T03:50:41;20.30;99.90
11136;DHT22;5622;50.840;4.948;2022-07-25T03:53:08;20.30;99.90
11136;DHT22;5622;50.840;4.948;2022-07-25T03:55:35;20.30;99.90
11136;DHT22;5622;50.840;4.948;2022-07-25T03:58:04;20.30;99.90
11136;DHT22;5622;50.840;4.948;2022-07-25T04:00:31;20.30;99.90
11136;DHT22;5622;50.840;4.948;2022-07-25T04:02:58;20.40;99.90
11136;DHT22;5622;50.840;4.948;2022-07-25T04:05:25;20.40;99.90
11136;DHT22;5622;50.840;4.948;2022-07-25T04:07:54;20.40;99.90
11136;DHT22;5622;50.840;4.948;2022-07-25T04:10:21;20.40;99.90
11136;DHT22;5622;50.840;4.948;2022-07-25T04:12:49;20.40;99.90
11136;DHT22;5622;50.840;4.948;2022-07-25T04:15:17;20.40;99.90
11136;DHT22;5622;50.840;4.948;2022-07-25T04:17:44;20.40;99.90
11136;DHT22;5622;50.840;4.948;2022-07-25T04:20:11;20.40;99.90
11136;DHT22;5622;50.840;4.948;2022-07-25T04:22:39;20.40;99.90
11136;DHT22;5622;50.840;4.948;2022-07-25T04:25:06;20.40;99.90
11136;DHT22;5622;50.840;4.948;2022-07-25T04:27:34;20.50;99.90
11136;DHT22;5622;50.840;4.948;2022-07-25T04:30:01;20.50;99.90
11136;DHT22;5622;50.840;4.948;2022-07-25T04:32:29;20.40;99.90
11136;DHT22;5622;50.840;4.948;2022-07-25T04:34:56;20.40;99.90
11136;DHT22;5622;50.840;4.948;2022-07-25T04:37:23;20.60;99.90
11136;DHT22;5622;50.840;4.948;2022-07-25T04:39:50;20.50;99.90
11136;DHT22;5622;50.840;4.948;2022-07-25T04:42:17;20.50;99.90
11136;DHT22;5622;50.840;4.948;2022-07-25T04:44:44;20.60;99.90
11136;DHT22;5622;50.840;4.948;2022-07-25T04:47:12;20.60;99.90
11136;DHT22;5622;50.840;4.948;2022-07-25T04:49:40;20.70;99.90
11136;DHT22;5622;50.840;4.948;2022-07-25T04:52:07;20.70;99.90
11136;DHT22;5622;50.840;4.948;2022-07-25T04:54:34;20.80;99.90
11136;DHT22;5622;50.840;4.948;2022-07-25T04:57:01;20.80;99.90
11136;DHT22;5622;50.840;4.948;2022-07-25T04:59:30;20.80;99.90
11136;DHT22;5622;50.840;4.948;2022-07-25T05:01:57;20.80;99.90
11136;DHT22;5622;50.840;4.948;2022-07-25T05:04:24;20.80;99.90
11136;DHT22;5622;50.840;4.948;2022-07-25T05:06:52;20.80;99.90
11136;DHT22;5622;50.840;4.948;2022-07-25T05:09:19;20.90;99.90
11136;DHT22;5622;50.840;4.948;2022-07-25T05:11:47;20.90;99.90
11136;DHT22;5622;50.840;4.948;2022-07-25T05:14:14;21.00;99.90
11136;DHT22;5622;50.840;4.948;2022-07-25T05:16:41;21.00;99.90
11136;DHT22;5622;50.840;4.948;2022-07-25T05:19:08;21.00;99.90
11136;DHT22;5622;50.840;4.948;2022-07-25T05:21:35;21.00;99.90
11136;DHT22;5622;50.840;4.948;2022-07-25T05:24:05;21.10;99.90
11136;DHT22;5622;50.840;4.948;2022-07-25T05:26:32;21.10;99.90
11136;DHT22;5622;50.840;4.948;2022-07-25T05:28:59;21.10;99.90
11136;DHT22;5622;50.840;4.948;2022-07-25T05:31:26;21.20;99.90
11136;DHT22;5622;50.840;4.948;2022-07-25T05:33:53;21.30;99.90
11136;DHT22;5622;50.840;4.948;2022-07-25T05:36:20;21.20;99.90
11136;DHT22;5622;50.840;4.948;2022-07-25T05:38:47;21.30;99.90
11136;DHT22;5622;50.840;4.948;2022-07-25T05:41:16;21.30;99.90
11136;DHT22;5622;50.840;4.948;2022-07-25T05:43:43;21.30;99.90
11136;DHT22;5622;50.840;4.948;2022-07-25T05:46:12;21.40;99.90
11136;DHT22;5622;50.840;4.948;2022-07-25T05:48:40;21.40;99.90
11136;DHT22;5622;50.840;4.948;2022-07-25T05:51:07;21.40;99.90
11136;DHT22;5622;50.840;4.948;2022-07-25T05:53:35;21.40;99.90
11136;DHT22;5622;50.840;4.948;2022-07-25T05:56:03;21.40;99.90
11136;DHT22;5622;50.840;4.948;2022-07-25T05:58:31;21.40;99.90
11136;DHT22;5622;50.840;4.948;2022-07-25T06:00:58;21.40;99.90
11136;DHT22;5622;50.840;4.948;2022-07-25T06:03:26;21.40;99.90
11136;DHT22;5622;50.840;4.948;2022-07-25T06:05:54;21.40;99.90
11136;DHT22;5622;50.840;4.948;2022-07-25T06:08:22;21.40;99.90
11136;DHT22;5622;50.840;4.948;2022-07-25T06:10:49;21.50;99.90
11136;DHT22;5622;50.840;4.948;2022-07-25T06:13:16;21.50;99.90
11136;DHT22;5622;50.840;4.948;2022-07-25T06:15:44;21.40;99.90
11136;DHT22;5622;50.840;4.948;2022-07-25T06:18:11;21.50;99.90
11136;DHT22;5622;50.840;4.948;2022-07-25T06:20:38;21.50;99.90
11136;DHT22;5622;50.840;4.948;2022-07-25T06:23:05;21.50;99.60
11136;DHT22;5622;50.840;4.948;2022-07-25T06:25:33;21.50;99.90
11136;DHT22;5622;50.840;4.948;2022-07-25T06:28:00;21.50;99.90
11136;DHT22;5622;50.840;4.948;2022-07-25T06:30:27;21.40;99.80
11136;DHT22;5622;50.840;4.948;2022-07-25T06:32:56;21.40;99.60
11136;DHT22;5622;50.840;4.948;2022-07-25T06:35:23;21.40;99.50
11136;DHT22;5622;50.840;4.948;2022-07-25T06:37:50;21.50;99.30
11136;DHT22;5622;50.840;4.948;2022-07-25T06:40:17;21.50;99.50
11136;DHT22;5622;50.840;4.948;2022-07-25T06:42:46;21.50;99.40
11136;DHT22;5622;50.840;4.948;2022-07-25T06:45:14;21.50;99.90
11136;DHT22;5622;50.840;4.948;2022-07-25T06:47:42;21.50;99.90
11136;DHT22;5622;50.840;4.948;2022-07-25T06:50:12;21.50;99.90
11136;DHT22;5622;50.840;4.948;2022-07-25T06:52:40;21.60;99.90
11136;DHT22;5622;50.840;4.948;2022-07-25T06:55:09;21.50;99.50
11136;DHT22;5622;50.840;4.948;2022-07-25T06:57:36;21.60;99.90
11136;DHT22;5622;50.840;4.948;2022-07-25T07:00:05;21.60;99.90
11136;DHT22;5622;50.840;4.948;2022-07-25T07:02:34;21.60;99.80
11136;DHT22;5622;50.840;4.948;2022-07-25T07:05:01;21.70;99.90
11136;DHT22;5622;50.840;4.948;2022-07-25T07:07:30;21.70;99.90
11136;DHT22;5622;50.840;4.948;2022-07-25T07:09:57;21.70;99.90
11136;DHT22;5622;50.840;4.948;2022-07-25T07:12:24;21.70;99.90
11136;DHT22;5622;50.840;4.948;2022-07-25T07:14:51;21.80;99.90
11136;DHT22;5622;50.840;4.948;2022-07-25T07:17:18;21.80;99.90
11136;DHT22;5622;50.840;4.948;2022-07-25T07:19:45;21.90;99.90
11136;DHT22;5622;50.840;4.948;2022-07-25T07:22:12;22.10;99.90
11136;DHT22;5622;50.840;4.948;2022-07-25T07:24:41;22.20;99.90
11136;DHT22;5622;50.840;4.948;2022-07-25T07:27:08;22.40;99.90
11136;DHT22;5622;50.840;4.948;2022-07-25T07:29:35;22.50;99.90
11136;DHT22;5622;50.840;4.948;2022-07-25T07:32:02;22.80;99.90
11136;DHT22;5622;50.840;4.948;2022-07-25T07:34:31;22.90;99.90
11136;DHT22;5622;50.840;4.948;2022-07-25T07:36:58;22.90;99.80
11136;DHT22;5622;50.840;4.948;2022-07-25T07:39:25;23.00;99.90
11136;DHT22;5622;50.840;4.948;2022-07-25T07:41:54;23.10;99.90
11136;DHT22;5622;50.840;4.948;2022-07-25T07:44:21;23.30;99.90
11136;DHT22;5622;50.840;4.948;2022-07-25T07:46:48;23.40;99.70
11136;DHT22;5622;50.840;4.948;2022-07-25T07:49:15;23.50;99.90
11136;DHT22;5622;50.840;4.948;2022-07-25T07:51:42;23.70;99.90
11136;DHT22;5622;50.840;4.948;2022-07-25T07:54:09;23.80;99.90
11136;DHT22;5622;50.840;4.948;2022-07-25T07:56:55;24.10;99.90
11136;DHT22;5622;50.840;4.948;2022-07-25T07:59:22;24.20;99.20
11136;DHT22;5622;50.840;4.948;2022-07-25T08:01:49;24.30;98.10
11136;DHT22;5622;50.840;4.948;2022-07-25T08:04:16;24.30;99.00
11136;DHT22;5622;50.840;4.948;2022-07-25T08:06:43;24.40;98.50
11136;DHT22;5622;50.840;4.948;2022-07-25T08:09:10;24.40;99.20
11136;DHT22;5622;50.840;4.948;2022-07-25T08:11:37;24.40;98.90
11136;DHT22;5622;50.840;4.948;2022-07-25T08:14:05;24.50;98.30
11136;DHT22;5622;50.840;4.948;2022-07-25T08:16:32;24.50;98.20
11136;DHT22;5622;50.840;4.948;2022-07-25T08:19:00;24.70;98.20
11136;DHT22;5622;50.840;4.948;2022-07-25T08:21:27;24.90;97.90
11136;DHT22;5622;50.840;4.948;2022-07-25T08:23:54;25.00;97.30
11136;DHT22;5622;50.840;4.948;2022-07-25T08:26:21;25.00;97.10
11136;DHT22;5622;50.840;4.948;2022-07-25T08:28:48;25.10;96.30
11136;DHT22;5622;50.840;4.948;2022-07-25T08:31:17;25.00;96.30
11136;DHT22;5622;50.840;4.948;2022-07-25T08:33:44;25.00;96.90
11136;DHT22;5622;50.840;4.948;2022-07-25T08:36:11;24.90;96.60
11136;DHT22;5622;50.840;4.948;2022-07-25T08:38:38;25.00;97.50
11136;DHT22;5622;50.840;4.948;2022-07-25T08:41:05;25.30;98.20
11136;DHT22;5622;50.840;4.948;2022-07-25T08:43:34;25.40;95.90
11136;DHT22;5622;50.840;4.948;2022-07-25T08:46:04;25.40;96.30
11136;DHT22;5622;50.840;4.948;2022-07-25T08:48:34;25.60;95.20
11136;DHT22;5622;50.840;4.948;2022-07-25T08:51:02;25.70;95.40
11136;DHT22;5622;50.840;4.948;2022-07-25T08:53:29;25.80;95.10
11136;DHT22;5622;50.840;4.948;2022-07-25T08:55:57;26.00;95.70
11136;DHT22;5622;50.840;4.948;2022-07-25T08:58:24;26.20;94.70
11136;DHT22;5622;50.840;4.948;2022-07-25T09:00:51;26.30;94.00
11136;DHT22;5622;50.840;4.948;2022-07-25T09:03:18;26.30;94.50
11136;DHT22;5622;50.840;4.948;2022-07-25T09:05:47;26.40;94.40
11136;DHT22;5622;50.840;4.948;2022-07-25T09:08:15;26.50;93.70
11136;DHT22;5622;50.840;4.948;2022-07-25T09:10:45;26.60;94.30
11136;DHT22;5622;50.840;4.948;2022-07-25T09:13:13;26.70;94.10
11136;DHT22;5622;50.840;4.948;2022-07-25T09:15:44;26.90;94.20
11136;DHT22;5622;50.840;4.948;2022-07-25T09:18:12;26.90;93.00
11136;DHT22;5622;50.840;4.948;2022-07-25T09:20:42;27.10;93.30
11136;DHT22;5622;50.840;4.948;2022-07-25T09:23:14;27.10;92.20
11136;DHT22;5622;50.840;4.948;2022-07-25T09:25:42;27.20;92.30
11136;DHT22;5622;50.840;4.948;2022-07-25T09:28:13;27.30;91.70
11136;DHT22;5622;50.840;4.948;2022-07-25T09:30:52;27.40;92.20
11136;DHT22;5622;50.840;4.948;2022-07-25T09:33:21;27.60;93.30
11136;DHT22;5622;50.840;4.948;2022-07-25T09:35:48;27.50;90.80
11136;DHT22;5622;50.840;4.948;2022-07-25T09:38:17;27.40;91.10
11136;DHT22;5622;50.840;4.948;2022-07-25T09:40:54;27.20;90.90
11136;DHT22;5622;50.840;4.948;2022-07-25T09:43:21;26.90;90.60
11136;DHT22;5622;50.840;4.948;2022-07-25T09:45:49;26.80;91.20
11136;DHT22;5622;50.840;4.948;2022-07-25T09:48:18;26.80;92.40
11136;DHT22;5622;50.840;4.948;2022-07-25T09:50:46;26.70;92.40
11136;DHT22;5622;50.840;4.948;2022-07-25T09:53:13;26.80;92.10
11136;DHT22;5622;50.840;4.948;2022-07-25T09:55:42;26.70;92.90
11136;DHT22;5622;50.840;4.948;2022-07-25T09:58:09;26.80;92.20
11136;DHT22;5622;50.840;4.948;2022-07-25T10:00:39;26.90;92.20
11136;DHT22;5622;50.840;4.948;2022-07-25T10:03:17;26.80;91.80
11136;DHT22;5622;50.840;4.948;2022-07-25T10:06:01;26.60;90.80
11136;DHT22;5622;50.840;4.948;2022-07-25T10:08:35;26.80;91.70
11136;DHT22;5622;50.840;4.948;2022-07-25T10:11:04;26.90;92.30
11136;DHT22;5622;50.840;4.948;2022-07-25T10:13:34;26.80;90.50
11136;DHT22;5622;50.840;4.948;2022-07-25T10:16:14;26.70;90.90
11136;DHT22;5622;50.840;4.948;2022-07-25T10:18:47;26.70;91.90
11136;DHT22;5622;50.840;4.948;2022-07-25T10:21:15;26.90;90.90
11136;DHT22;5622;50.840;4.948;2022-07-25T10:23:43;27.00;91.90
11136;DHT22;5622;50.840;4.948;2022-07-25T10:26:13;26.80;91.10
11136;DHT22;5622;50.840;4.948;2022-07-25T10:28:42;26.80;92.00
11136;DHT22;5622;50.840;4.948;2022-07-25T10:31:18;26.70;91.20
11136;DHT22;5622;50.840;4.948;2022-07-25T10:33:57;26.60;91.00
11136;DHT22;5622;50.840;4.948;2022-07-25T10:36:26;26.50;92.20
11136;DHT22;5622;50.840;4.948;2022-07-25T10:38:59;26.40;91.70
11136;DHT22;5622;50.840;4.948;2022-07-25T10:41:28;26.30;91.40
11136;DHT22;5622;50.840;4.948;2022-07-25T10:43:59;26.20;91.80
11136;DHT22;5622;50.840;4.948;2022-07-25T10:46:27;26.20;92.50
11136;DHT22;5622;50.840;4.948;2022-07-25T10:49:01;26.40;91.90
11136;DHT22;5622;50.840;4.948;2022-07-25T10:51:31;26.50;92.70
11136;DHT22;5622;50.840;4.948;2022-07-25T10:53:58;26.60;93.10
11136;DHT22;5622;50.840;4.948;2022-07-25T10:56:28;26.70;91.50
11136;DHT22;5622;50.840;4.948;2022-07-25T10:58:57;26.60;90.90
11136;DHT22;5622;50.840;4.948;2022-07-25T11:01:27;26.40;89.30
11136;DHT22;5622;50.840;4.948;2022-07-25T11:03:56;26.20;90.20
11136;DHT22;5622;50.840;4.948;2022-07-25T11:06:32;26.10;91.00
11136;DHT22;5622;50.840;4.948;2022-07-25T11:08:59;26.10;91.60
11136;DHT22;5622;50.840;4.948;2022-07-25T11:11:37;26.20;92.80
11136;DHT22;5622;50.840;4.948;2022-07-25T11:14:12;26.30;92.60
11136;DHT22;5622;50.840;4.948;2022-07-25T11:16:40;26.40;93.30
11136;DHT22;5622;50.840;4.948;2022-07-25T11:19:15;26.50;93.20
11136;DHT22;5622;50.840;4.948;2022-07-25T11:21:44;26.50;93.20
11136;DHT22;5622;50.840;4.948;2022-07-25T11:24:11;26.50;92.50
11136;DHT22;5622;50.840;4.948;2022-07-25T11:26:50;26.40;92.30
11136;DHT22;5622;50.840;4.948;2022-07-25T11:29:19;26.30;91.30
11136;DHT22;5622;50.840;4.948;2022-07-25T11:31:54;26.10;90.90
11136;DHT22;5622;50.840;4.948;2022-07-25T11:34:22;26.10;91.20
11136;DHT22;5622;50.840;4.948;2022-07-25T11:36:50;26.00;91.60
11136;DHT22;5622;50.840;4.948;2022-07-25T11:39:20;25.90;91.50
11136;DHT22;5622;50.840;4.948;2022-07-25T11:41:59;25.70;91.50
11136;DHT22;5622;50.840;4.948;2022-07-25T11:44:32;25.70;90.00
11136;DHT22;5622;50.840;4.948;2022-07-25T11:46:59;25.60;90.30
11136;DHT22;5622;50.840;4.948;2022-07-25T11:49:27;25.50;90.30
11136;DHT22;5622;50.840;4.948;2022-07-25T11:51:54;25.30;90.90
11136;DHT22;5622;50.840;4.948;2022-07-25T11:54:21;25.20;90.20
11136;DHT22;5622;50.840;4.948;2022-07-25T11:56:48;25.20;91.20
11136;DHT22;5622;50.840;4.948;2022-07-25T11:59:17;25.20;91.10
11136;DHT22;5622;50.840;4.948;2022-07-25T12:01:44;25.00;91.10
11136;DHT22;5622;50.840;4.948;2022-07-25T12:04:15;25.00;92.10
11136;DHT22;5622;50.840;4.948;2022-07-25T12:06:43;24.90;91.50
11136;DHT22;5622;50.840;4.948;2022-07-25T12:09:12;24.90;91.70
11136;DHT22;5622;50.840;4.948;2022-07-25T12:11:40;24.80;91.60
11136;DHT22;5622;50.840;4.948;2022-07-25T12:14:08;24.70;92.10
11136;DHT22;5622;50.840;4.948;2022-07-25T12:16:36;24.60;92.20
11136;DHT22;5622;50.840;4.948;2022-07-25T12:19:07;24.50;92.30
11136;DHT22;5622;50.840;4.948;2022-07-25T12:21:34;24.40;92.20
11136;DHT22;5622;50.840;4.948;2022-07-25T12:24:02;24.20;91.80
11136;DHT22;5622;50.840;4.948;2022-07-25T12:26:29;24.10;92.30
11136;DHT22;5622;50.840;4.948;2022-07-25T12:28:56;24.00;92.70
11136;DHT22;5622;50.840;4.948;2022-07-25T12:31:23;23.90;92.80
11136;DHT22;5622;50.840;4.948;2022-07-25T12:33:54;23.80;93.10
11136;DHT22;5622;50.840;4.948;2022-07-25T12:36:22;23.80;93.80
11136;DHT22;5622;50.840;4.948;2022-07-25T12:38:49;23.70;93.90
11136;DHT22;5622;50.840;4.948;2022-07-25T12:41:16;23.70;94.30
11136;DHT22;5622;50.840;4.948;2022-07-25T12:43:47;23.70;94.20
11136;DHT22;5622;50.840;4.948;2022-07-25T12:46:14;23.70;94.60
11136;DHT22;5622;50.840;4.948;2022-07-25T12:48:41;23.70;93.80
11136;DHT22;5622;50.840;4.948;2022-07-25T12:51:11;23.70;94.30
11136;DHT22;5622;50.840;4.948;2022-07-25T12:53:38;23.80;93.50
11136;DHT22;5622;50.840;4.948;2022-07-25T12:56:05;23.90;93.90
11136;DHT22;5622;50.840;4.948;2022-07-25T12:58:32;24.10;94.30
11136;DHT22;5622;50.840;4.948;2022-07-25T13:00:59;24.20;94.00
11136;DHT22;5622;50.840;4.948;2022-07-25T13:03:26;24.30;93.50
11136;DHT22;5622;50.840;4.948;2022-07-25T13:05:54;24.30;93.70
11136;DHT22;5622;50.840;4.948;2022-07-25T13:08:22;24.40;94.10
11136;DHT22;5622;50.840;4.948;2022-07-25T13:10:49;24.40;92.80
11136;DHT22;5622;50.840;4.948;2022-07-25T13:13:16;24.50;92.90
11136;DHT22;5622;50.840;4.948;2022-07-25T13:15:44;24.50;93.50
11136;DHT22;5622;50.840;4.948;2022-07-25T13:18:11;24.50;92.20
11136;DHT22;5622;50.840;4.948;2022-07-25T13:20:38;24.60;91.30
11136;DHT22;5622;50.840;4.948;2022-07-25T13:23:05;24.60;91.70
11136;DHT22;5622;50.840;4.948;2022-07-25T13:25:34;24.60;91.60
11136;DHT22;5622;50.840;4.948;2022-07-25T13:28:01;24.50;92.00
11136;DHT22;5622;50.840;4.948;2022-07-25T13:30:29;24.40;91.20
11136;DHT22;5622;50.840;4.948;2022-07-25T13:32:56;24.40;91.10
11136;DHT22;5622;50.840;4.948;2022-07-25T13:35:23;24.40;91.20
11136;DHT22;5622;50.840;4.948;2022-07-25T13:37:50;24.30;91.40
11136;DHT22;5622;50.840;4.948;2022-07-25T13:40:17;24.30;91.80
11136;DHT22;5622;50.840;4.948;2022-07-25T13:42:46;24.20;91.50
11136;DHT22;5622;50.840;4.948;2022-07-25T13:45:13;24.20;92.00
11136;DHT22;5622;50.840;4.948;2022-07-25T13:47:40;24.30;92.10
11136;DHT22;5622;50.840;4.948;2022-07-25T13:50:08;24.30;92.20
11136;DHT22;5622;50.840;4.948;2022-07-25T13:52:35;24.30;92.40
11136;DHT22;5622;50.840;4.948;2022-07-25T13:55:02;24.30;92.10
11136;DHT22;5622;50.840;4.948;2022-07-25T13:57:31;24.30;92.60
11136;DHT22;5622;50.840;4.948;2022-07-25T13:59:59;24.40;92.30
11136;DHT22;5622;50.840;4.948;2022-07-25T14:02:26;24.40;92.30
11136;DHT22;5622;50.840;4.948;2022-07-25T14:04:54;24.40;92.10
11136;DHT22;5622;50.840;4.948;2022-07-25T14:07:21;24.40;91.90
11136;DHT22;5622;50.840;4.948;2022-07-25T14:09:48;24.40;92.50
11136;DHT22;5622;50.840;4.948;2022-07-25T14:12:15;24.40;91.60
11136;DHT22;5622;50.840;4.948;2022-07-25T14:14:42;24.30;91.30
11136;DHT22;5622;50.840;4.948;2022-07-25T14:17:11;24.30;92.00
11136;DHT22;5622;50.840;4.948;2022-07-25T14:19:38;24.30;91.30
11136;DHT22;5622;50.840;4.948;2022-07-25T14:22:05;24.30;91.10
11136;DHT22;5622;50.840;4.948;2022-07-25T14:24:32;24.30;90.70
11136;DHT22;5622;50.840;4.948;2022-07-25T14:26:59;24.40;90.10
11136;DHT22;5622;50.840;4.948;2022-07-25T14:29:27;24.50;90.40
11136;DHT22;5622;50.840;4.948;2022-07-25T14:31:54;24.50;90.00
11136;DHT22;5622;50.840;4.948;2022-07-25T14:34:22;24.50;89.90
11136;DHT22;5622;50.840;4.948;2022-07-25T14:36:50;24.50;90.20
11136;DHT22;5622;50.840;4.948;2022-07-25T14:39:17;24.40;90.10
11136;DHT22;5622;50.840;4.948;2022-07-25T14:41:44;24.40;90.90
11136;DHT22;5622;50.840;4.948;2022-07-25T14:44:11;24.50;90.80
11136;DHT22;5622;50.840;4.948;2022-07-25T14:46:38;24.50;90.30
11136;DHT22;5622;50.840;4.948;2022-07-25T14:49:06;24.50;89.50
11136;DHT22;5622;50.840;4.948;2022-07-25T14:51:34;24.50;89.20
11136;DHT22;5622;50.840;4.948;2022-07-25T14:54:01;24.40;88.70
11136;DHT22;5622;50.840;4.948;2022-07-25T14:56:28;24.40;89.00
11136;DHT22;5622;50.840;4.948;2022-07-25T14:58:56;24.40;88.50
11136;DHT22;5622;50.840;4.948;2022-07-25T15:01:23;24.40;89.30
11136;DHT22;5622;50.840;4.948;2022-07-25T15:03:51;24.40;88.30
11136;DHT22;5622;50.840;4.948;2022-07-25T15:06:18;24.40;88.30
11136;DHT22;5622;50.840;4.948;2022-07-25T15:08:47;24.40;85.70
11136;DHT22;5622;50.840;4.948;2022-07-25T15:11:16;24.40;85.60
11136;DHT22;5622;50.840;4.948;2022-07-25T15:13:43;24.40;85.60
11136;DHT22;5622;50.840;4.948;2022-07-25T15:16:12;24.40;85.20
11136;DHT22;5622;50.840;4.948;2022-07-25T15:18:39;24.50;84.00
11136;DHT22;5622;50.840;4.948;2022-07-25T15:21:06;24.50;84.80
11136;DHT22;5622;50.840;4.948;2022-07-25T15:23:33;24.50;84.90
11136;DHT22;5622;50.840;4.948;2022-07-25T15:26:03;24.60;84.80
11136;DHT22;5622;50.840;4.948;2022-07-25T15:28:32;24.60;85.00
11136;DHT22;5622;50.840;4.948;2022-07-25T15:30:59;24.60;86.30
11136;DHT22;5622;50.840;4.948;2022-07-25T15:33:26;24.60;84.80
11136;DHT22;5622;50.840;4.948;2022-07-25T15:35:54;24.60;84.80
11136;DHT22;5622;50.840;4.948;2022-07-25T15:38:21;24.60;82.90
11136;DHT22;5622;50.840;4.948;2022-07-25T15:40:48;24.70;83.30
11136;DHT22;5622;50.840;4.948;2022-07-25T15:43:20;24.70;82.90
11136;DHT22;5622;50.840;4.948;2022-07-25T15:45:47;24.70;83.50
11136;DHT22;5622;50.840;4.948;2022-07-25T15:48:15;24.70;80.50
11136;DHT22;5622;50.840;4.948;2022-07-25T15:50:44;24.70;80.10
11136;DHT22;5622;50.840;4.948;2022-07-25T15:53:12;24.70;79.50
11136;DHT22;5622;50.840;4.948;2022-07-25T15:55:40;24.80;79.10
11136;DHT22;5622;50.840;4.948;2022-07-25T15:58:08;24.80;78.10
11136;DHT22;5622;50.840;4.948;2022-07-25T16:00:38;24.70;77.80
11136;DHT22;5622;50.840;4.948;2022-07-25T16:03:05;24.70;77.60